sensor_id;sensor_type;location;lat;lon;timestamp;pressure;altitude;pressure_sealevel;temperature;humidity
76603;BME280;65075;48.390;17.598;2023-11-19T00:01:29;100355.63;;;7.78;56.12
76603;BME280;65075;48.390;17.598;2023-11-19T00:03:56;100370.81;;;5.97;60.40
76603;BME280;65075;48.390;17.598;2023-11-19T00:06:23;100363.63;;;3.99;68.20
76603;BME280;65075;48.390;17.598;2023-11-19T00:08:49;100353.75;;;7.48;57.81
76603;BME280;65075;48.390;17.598;2023-11-19T00:11:17;100344.03;;;6.93;59.22
76603;BME280;65075;48.390;17.598;2023-11-19T00:13:42;100339.78;;;7.75;57.79
76603;BME280;65075;48.390;17.598;2023-11-19T00:16:09;100338.13;;;8.50;53.97
76603;BME280;65075;48.390;17.598;2023-11-19T00:18:39;100351.09;;;6.94;57.96
76603;BME280;65075;48.390;17.598;2023-11-19T00:21:06;100353.63;;;4.39;67.27
76603;BME280;65075;48.390;17.598;2023-11-19T00:23:35;100353.66;;;6.28;60.43
76603;BME280;65075;48.390;17.598;2023-11-19T00:26:01;100341.72;;;7.26;58.81
76603;BME280;65075;48.390;17.598;2023-11-19T00:28:29;100327.16;;;6.12;60.90
76603;BME280;65075;48.390;17.598;2023-11-19T00:30:56;100308.34;;;4.85;65.48
76603;BME280;65075;48.390;17.598;2023-11-19T00:33:23;100313.84;;;6.28;62.02
76603;BME280;65075;48.390;17.598;2023-11-19T00:35:49;100319.25;;;5.16;64.73
76603;BME280;65075;48.390;17.598;2023-11-19T00:38:17;100278.91;;;5.71;61.71
76603;BME280;65075;48.390;17.598;2023-11-19T00:40:44;100311.88;;;4.15;68.72
76603;BME280;65075;48.390;17.598;2023-11-19T00:43:11;100317.00;;;4.56;67.28
76603;BME280;65075;48.390;17.598;2023-11-19T00:45:38;100266.22;;;3.74;70.64
76603;BME280;65075;48.390;17.598;2023-11-19T00:48:05;100312.41;;;5.45;64.10
76603;BME280;65075;48.390;17.598;2023-11-19T00:50:32;100313.28;;;6.63;61.82
76603;BME280;65075;48.390;17.598;2023-11-19T00:52:57;100311.59;;;5.76;62.26
76603;BME280;65075;48.390;17.598;2023-11-19T00:55:24;100321.44;;;4.24;67.86
76603;BME280;65075;48.390;17.598;2023-11-19T00:57:51;100317.69;;;3.53;71.38
76603;BME280;65075;48.390;17.598;2023-11-19T01:00:18;100310.75;;;4.55;69.24
76603;BME280;65075;48.390;17.598;2023-11-19T01:02:46;100309.31;;;6.47;62.44
76603;BME280;65075;48.390;17.598;2023-11-19T01:05:13;100300.72;;;6.07;63.29
76603;BME280;65075;48.390;17.598;2023-11-19T01:07:50;100302.38;;;6.08;62.92
76603;BME280;65075;48.390;17.598;2023-11-19T01:10:20;100306.53;;;5.55;62.73
76603;BME280;65075;48.390;17.598;2023-11-19T01:12:46;100308.19;;;5.87;63.55
76603;BME280;65075;48.390;17.598;2023-11-19T01:15:13;100263.72;;;7.33;58.76
76603;BME280;65075;48.390;17.598;2023-11-19T01:17:39;100278.50;;;7.79;56.65
76603;BME280;65075;48.390;17.598;2023-11-19T01:20:07;100300.53;;;8.35;54.66
76603;BME280;65075;48.390;17.598;2023-11-19T01:22:34;100296.97;;;8.70;53.89
76603;BME280;65075;48.390;17.598;2023-11-19T01:25:01;100293.66;;;7.57;55.53
76603;BME280;65075;48.390;17.598;2023-11-19T01:27:29;100289.31;;;5.74;62.94
76603;BME280;65075;48.390;17.598;2023-11-19T01:29:56;100291.22;;;7.67;56.54
76603;BME280;65075;48.390;17.598;2023-11-19T01:32:22;100274.53;;;7.52;56.66
76603;BME280;65075;48.390;17.598;2023-11-19T01:34:54;100271.44;;;7.07;59.35
76603;BME280;65075;48.390;17.598;2023-11-19T01:37:21;100281.13;;;8.20;55.13
76603;BME280;65075;48.390;17.598;2023-11-19T01:39:48;100282.03;;;7.91;55.90
76603;BME280;65075;48.390;17.598;2023-11-19T01:42:15;100284.75;;;6.78;58.43
76603;BME280;65075;48.390;17.598;2023-11-19T01:44:57;100276.22;;;6.75;58.57
76603;BME280;65075;48.390;17.598;2023-11-19T01:47:27;100264.97;;;5.99;62.17
76603;BME280;65075;48.390;17.598;2023-11-19T01:49:56;100245.72;;;7.09;57.80
76603;BME280;65075;48.390;17.598;2023-11-19T01:52:23;100194.00;;;7.34;56.57
76603;BME280;65075;48.390;17.598;2023-11-19T01:55:01;100237.34;;;6.08;61.03
76603;BME280;65075;48.390;17.598;2023-11-19T01:57:31;100231.28;;;6.97;59.05
76603;BME280;65075;48.390;17.598;2023-11-19T01:59:58;100241.63;;;7.60;56.67
76603;BME280;65075;48.390;17.598;2023-11-19T02:02:26;100229.38;;;7.92;55.53
76603;BME280;65075;48.390;17.598;2023-11-19T02:04:53;100236.94;;;8.25;55.28
76603;BME280;65075;48.390;17.598;2023-11-19T02:07:20;100214.47;;;8.18;54.02
76603;BME280;65075;48.390;17.598;2023-11-19T02:09:47;100208.38;;;7.23;57.78
76603;BME280;65075;48.390;17.598;2023-11-19T02:12:14;100197.13;;;7.95;54.77
76603;BME280;65075;48.390;17.598;2023-11-19T02:14:47;100211.66;;;8.36;54.46
76603;BME280;65075;48.390;17.598;2023-11-19T02:17:31;100215.78;;;8.03;55.44
76603;BME280;65075;48.390;17.598;2023-11-19T02:19:58;100186.81;;;6.39;60.25
76603;BME280;65075;48.390;17.598;2023-11-19T02:22:26;100197.22;;;7.66;56.80
76603;BME280;65075;48.390;17.598;2023-11-19T02:25:04;100178.34;;;7.47;56.67
76603;BME280;65075;48.390;17.598;2023-11-19T02:27:53;100175.59;;;7.36;57.00
76603;BME280;65075;48.390;17.598;2023-11-19T02:30:29;100185.19;;;7.85;56.87
76603;BME280;65075;48.390;17.598;2023-11-19T02:32:59;100193.47;;;8.13;55.33
76603;BME280;65075;48.390;17.598;2023-11-19T02:35:28;100154.03;;;6.40;58.06
76603;BME280;65075;48.390;17.598;2023-11-19T02:37:59;100184.09;;;5.03;64.88
76603;BME280;65075;48.390;17.598;2023-11-19T02:40:40;100175.97;;;7.86;56.49
76603;BME280;65075;48.390;17.598;2023-11-19T02:43:06;100160.88;;;5.20;64.88
76603;BME280;65075;48.390;17.598;2023-11-19T02:45:34;100145.81;;;6.65;60.48
76603;BME280;65075;48.390;17.598;2023-11-19T02:48:02;100144.69;;;6.84;58.85
76603;BME280;65075;48.390;17.598;2023-11-19T02:50:29;100156.81;;;6.52;60.13
76603;BME280;65075;48.390;17.598;2023-11-19T02:52:56;100151.31;;;7.00;59.30
76603;BME280;65075;48.390;17.598;2023-11-19T02:55:24;100150.75;;;6.68;58.68
76603;BME280;65075;48.390;17.598;2023-11-19T02:57:51;100147.69;;;4.75;65.68
76603;BME280;65075;48.390;17.598;2023-11-19T03:00:24;100138.78;;;4.30;67.54
76603;BME280;65075;48.390;17.598;2023-11-19T03:02:55;100129.34;;;4.08;68.37
76603;BME280;65075;48.390;17.598;2023-11-19T03:05:27;100136.78;;;5.19;65.94
76603;BME280;65075;48.390;17.598;2023-11-19T03:07:56;100139.34;;;4.45;66.95
76603;BME280;65075;48.390;17.598;2023-11-19T03:10:24;100127.53;;;5.02;65.22
76603;BME280;65075;48.390;17.598;2023-11-19T03:12:51;100125.97;;;4.56;67.07
76603;BME280;65075;48.390;17.598;2023-11-19T03:15:18;100116.41;;;3.65;70.56
76603;BME280;65075;48.390;17.598;2023-11-19T03:17:46;100110.78;;;3.60;70.68
76603;BME280;65075;48.390;17.598;2023-11-19T03:20:13;100104.41;;;4.05;68.16
76603;BME280;65075;48.390;17.598;2023-11-19T03:22:43;100107.22;;;6.63;62.58
76603;BME280;65075;48.390;17.598;2023-11-19T03:25:10;100097.84;;;4.95;65.32
76603;BME280;65075;48.390;17.598;2023-11-19T03:27:38;100104.41;;;4.05;69.41
76603;BME280;65075;48.390;17.598;2023-11-19T03:30:06;100105.34;;;4.31;70.17
76603;BME280;65075;48.390;17.598;2023-11-19T03:32:33;100124.97;;;3.10;72.48
76603;BME280;65075;48.390;17.598;2023-11-19T03:35:06;100112.19;;;5.20;66.13
76603;BME280;65075;48.390;17.598;2023-11-19T03:37:36;100073.84;;;6.21;60.28
76603;BME280;65075;48.390;17.598;2023-11-19T03:40:04;100078.38;;;3.73;69.27
76603;BME280;65075;48.390;17.598;2023-11-19T03:42:31;100084.34;;;4.33;68.63
76603;BME280;65075;48.390;17.598;2023-11-19T03:44:58;100096.03;;;6.11;62.82
76603;BME280;65075;48.390;17.598;2023-11-19T03:47:26;100088.09;;;5.37;63.65
76603;BME280;65075;48.390;17.598;2023-11-19T03:49:52;100080.41;;;6.43;61.17
76603;BME280;65075;48.390;17.598;2023-11-19T03:52:19;100083.38;;;6.95;59.06
76603;BME280;65075;48.390;17.598;2023-11-19T03:54:46;100089.16;;;7.79;57.09
76603;BME280;65075;48.390;17.598;2023-11-19T03:57:14;100092.63;;;7.40;57.92
76603;BME280;65075;48.390;17.598;2023-11-19T03:59:41;100085.09;;;7.30;58.55
76603;BME280;65075;48.390;17.598;2023-11-19T04:02:08;100080.66;;;6.42;59.57
76603;BME280;65075;48.390;17.598;2023-11-19T04:04:35;100100.63;;;5.13;63.43
76603;BME280;65075;48.390;17.598;2023-11-19T04:07:02;100093.56;;;4.12;67.87
76603;BME280;65075;48.390;17.598;2023-11-19T04:09:33;100106.69;;;7.48;58.83
76603;BME280;65075;48.390;17.598;2023-11-19T04:12:00;100069.59;;;5.95;61.27
76603;BME280;65075;48.390;17.598;2023-11-19T04:14:27;100090.78;;;5.62;65.15
76603;BME280;65075;48.390;17.598;2023-11-19T04:16:54;100098.47;;;6.01;62.24
76603;BME280;65075;48.390;17.598;2023-11-19T04:19:21;100101.97;;;8.30;55.67
76603;BME280;65075;48.390;17.598;2023-11-19T04:21:48;100115.50;;;4.98;65.30
76603;BME280;65075;48.390;17.598;2023-11-19T04:24:15;100117.31;;;7.38;59.22
76603;BME280;65075;48.390;17.598;2023-11-19T04:26:44;100096.03;;;8.33;55.22
76603;BME280;65075;48.390;17.598;2023-11-19T04:29:18;100075.91;;;8.06;56.14
76603;BME280;65075;48.390;17.598;2023-11-19T04:31:46;100033.22;;;8.46;53.92
76603;BME280;65075;48.390;17.598;2023-11-19T04:34:13;100059.34;;;8.92;52.64
76603;BME280;65075;48.390;17.598;2023-11-19T04:36:40;100075.03;;;6.55;58.66
76603;BME280;65075;48.390;17.598;2023-11-19T04:39:06;100071.47;;;5.34;63.22
76603;BME280;65075;48.390;17.598;2023-11-19T04:41:35;100072.16;;;4.80;66.70
76603;BME280;65075;48.390;17.598;2023-11-19T04:44:02;100073.31;;;3.96;69.89
76603;BME280;65075;48.390;17.598;2023-11-19T04:46:29;100075.00;;;4.60;69.16
76603;BME280;65075;48.390;17.598;2023-11-19T04:48:56;100077.47;;;5.17;66.93
76603;BME280;65075;48.390;17.598;2023-11-19T04:51:22;100074.50;;;4.45;69.22
76603;BME280;65075;48.390;17.598;2023-11-19T04:53:48;100076.41;;;4.38;71.12
76603;BME280;65075;48.390;17.598;2023-11-19T04:56:15;100076.75;;;6.19;64.80
76603;BME280;65075;48.390;17.598;2023-11-19T04:58:43;100087.25;;;8.03;58.30
76603;BME280;65075;48.390;17.598;2023-11-19T05:01:22;100082.09;;;6.97;61.12
76603;BME280;65075;48.390;17.598;2023-11-19T05:03:49;100084.59;;;7.10;61.29
76603;BME280;65075;48.390;17.598;2023-11-19T05:06:17;100073.59;;;7.86;58.28
76603;BME280;65075;48.390;17.598;2023-11-19T05:08:44;100092.25;;;8.34;57.20
76603;BME280;65075;48.390;17.598;2023-11-19T05:11:11;100083.31;;;6.71;62.82
76603;BME280;65075;48.390;17.598;2023-11-19T05:13:44;100081.09;;;4.80;68.36
76603;BME280;65075;48.390;17.598;2023-11-19T05:16:12;100087.03;;;6.88;62.32
76603;BME280;65075;48.390;17.598;2023-11-19T05:18:41;100060.78;;;6.00;63.18
76603;BME280;65075;48.390;17.598;2023-11-19T05:21:08;100083.31;;;4.65;69.65
76603;BME280;65075;48.390;17.598;2023-11-19T05:23:34;100068.66;;;5.83;65.21
76603;BME280;65075;48.390;17.598;2023-11-19T05:26:04;100065.00;;;5.16;67.60
76603;BME280;65075;48.390;17.598;2023-11-19T05:28:32;100052.63;;;4.22;70.12
76603;BME280;65075;48.390;17.598;2023-11-19T05:30:59;100041.44;;;5.78;64.31
76603;BME280;65075;48.390;17.598;2023-11-19T05:33:27;100035.84;;;8.41;56.71
76603;BME280;65075;48.390;17.598;2023-11-19T05:35:55;100044.00;;;5.55;64.70
76603;BME280;65075;48.390;17.598;2023-11-19T05:38:23;100045.44;;;5.94;64.57
76603;BME280;65075;48.390;17.598;2023-11-19T05:40:50;100047.88;;;5.22;65.62
76603;BME280;65075;48.390;17.598;2023-11-19T05:43:16;100031.59;;;6.02;65.02
76603;BME280;65075;48.390;17.598;2023-11-19T05:45:42;100026.19;;;7.19;61.03
76603;BME280;65075;48.390;17.598;2023-11-19T05:48:10;100024.88;;;7.96;57.50
76603;BME280;65075;48.390;17.598;2023-11-19T05:50:37;100011.41;;;8.58;55.78
76603;BME280;65075;48.390;17.598;2023-11-19T05:53:05;100000.44;;;8.25;55.46
76603;BME280;65075;48.390;17.598;2023-11-19T05:55:36;100004.81;;;4.53;68.29
76603;BME280;65075;48.390;17.598;2023-11-19T05:58:11;100001.91;;;4.55;70.16
76603;BME280;65075;48.390;17.598;2023-11-19T06:00:39;99992.88;;;6.54;63.73
76603;BME280;65075;48.390;17.598;2023-11-19T06:03:08;99993.97;;;6.65;61.23
76603;BME280;65075;48.390;17.598;2023-11-19T06:05:35;99997.69;;;6.41;63.79
76603;BME280;65075;48.390;17.598;2023-11-19T06:08:02;99983.13;;;7.34;59.65
76603;BME280;65075;48.390;17.598;2023-11-19T06:10:29;99982.53;;;7.44;58.11
76603;BME280;65075;48.390;17.598;2023-11-19T06:13:00;99977.97;;;6.98;61.10
76603;BME280;65075;48.390;17.598;2023-11-19T06:15:26;99968.34;;;5.60;63.97
76603;BME280;65075;48.390;17.598;2023-11-19T06:17:54;99979.69;;;5.68;65.59
76603;BME280;65075;48.390;17.598;2023-11-19T06:20:21;99999.88;;;3.81;72.98
76603;BME280;65075;48.390;17.598;2023-11-19T06:22:48;100000.38;;;3.65;73.74
76603;BME280;65075;48.390;17.598;2023-11-19T06:25:15;99995.88;;;3.46;75.56
76603;BME280;65075;48.390;17.598;2023-11-19T06:27:42;99983.88;;;6.30;65.14
76603;BME280;65075;48.390;17.598;2023-11-19T06:30:11;99985.03;;;6.23;64.63
76603;BME280;65075;48.390;17.598;2023-11-19T06:32:37;99990.78;;;5.31;65.78
76603;BME280;65075;48.390;17.598;2023-11-19T06:35:05;100010.28;;;2.94;76.60
76603;BME280;65075;48.390;17.598;2023-11-19T06:37:32;99988.53;;;2.96;77.79
76603;BME280;65075;48.390;17.598;2023-11-19T06:39:59;99973.94;;;4.12;74.51
76603;BME280;65075;48.390;17.598;2023-11-19T06:42:25;99943.72;;;3.65;74.17
76603;BME280;65075;48.390;17.598;2023-11-19T06:44:52;99978.72;;;3.78;73.73
76603;BME280;65075;48.390;17.598;2023-11-19T06:47:19;99991.16;;;4.73;70.06
76603;BME280;65075;48.390;17.598;2023-11-19T06:49:44;99990.09;;;5.17;70.00
76603;BME280;65075;48.390;17.598;2023-11-19T06:52:11;99981.13;;;5.89;67.63
76603;BME280;65075;48.390;17.598;2023-11-19T06:54:39;99985.03;;;4.84;68.97
76603;BME280;65075;48.390;17.598;2023-11-19T06:57:05;99986.19;;;4.70;70.33
76603;BME280;65075;48.390;17.598;2023-11-19T06:59:32;100006.38;;;4.68;70.18
76603;BME280;65075;48.390;17.598;2023-11-19T07:01:58;99978.59;;;5.76;67.12
76603;BME280;65075;48.390;17.598;2023-11-19T07:04:27;100000.53;;;6.46;64.63
76603;BME280;65075;48.390;17.598;2023-11-19T07:06:54;100002.56;;;6.62;64.19
76603;BME280;65075;48.390;17.598;2023-11-19T07:09:21;99992.03;;;6.30;64.83
76603;BME280;65075;48.390;17.598;2023-11-19T07:11:49;99977.13;;;7.21;62.17
76603;BME280;65075;48.390;17.598;2023-11-19T07:14:18;99973.56;;;6.62;62.68
76603;BME280;65075;48.390;17.598;2023-11-19T07:16:45;99960.06;;;5.91;66.10
76603;BME280;65075;48.390;17.598;2023-11-19T07:19:19;99985.25;;;4.58;70.15
76603;BME280;65075;48.390;17.598;2023-11-19T07:21:48;99971.25;;;4.86;69.92
76603;BME280;65075;48.390;17.598;2023-11-19T07:24:18;99974.91;;;5.52;67.80
76603;BME280;65075;48.390;17.598;2023-11-19T07:26:47;99954.91;;;4.56;69.55
76603;BME280;65075;48.390;17.598;2023-11-19T07:29:14;99961.38;;;5.52;67.73
76603;BME280;65075;48.390;17.598;2023-11-19T07:31:43;99982.53;;;4.58;70.94
76603;BME280;65075;48.390;17.598;2023-11-19T07:34:15;99963.13;;;5.65;68.83
76603;BME280;65075;48.390;17.598;2023-11-19T07:36:43;99949.72;;;5.70;67.27
76603;BME280;65075;48.390;17.598;2023-11-19T07:39:09;99957.53;;;4.87;71.08
76603;BME280;65075;48.390;17.598;2023-11-19T07:41:36;99953.72;;;5.67;68.23
76603;BME280;65075;48.390;17.598;2023-11-19T07:44:03;99940.44;;;5.30;69.59
76603;BME280;65075;48.390;17.598;2023-11-19T07:46:29;99928.59;;;5.42;68.04
76603;BME280;65075;48.390;17.598;2023-11-19T07:48:57;99924.78;;;4.77;71.47
76603;BME280;65075;48.390;17.598;2023-11-19T07:51:25;99948.31;;;5.31;68.84
76603;BME280;65075;48.390;17.598;2023-11-19T07:53:52;99915.56;;;4.85;69.11
76603;BME280;65075;48.390;17.598;2023-11-19T07:56:20;99903.91;;;4.84;71.07
76603;BME280;65075;48.390;17.598;2023-11-19T07:58:46;99916.75;;;4.71;71.73
76603;BME280;65075;48.390;17.598;2023-11-19T08:01:15;99857.13;;;3.73;73.62
76603;BME280;65075;48.390;17.598;2023-11-19T08:03:41;99907.53;;;5.33;69.26
76603;BME280;65075;48.390;17.598;2023-11-19T08:06:10;99904.34;;;4.63;72.50
76603;BME280;65075;48.390;17.598;2023-11-19T08:08:37;99904.81;;;5.14;71.45
76603;BME280;65075;48.390;17.598;2023-11-19T08:11:05;99886.03;;;4.83;71.28
76603;BME280;65075;48.390;17.598;2023-11-19T08:13:32;99921.00;;;3.79;74.78
76603;BME280;65075;48.390;17.598;2023-11-19T08:15:59;99924.38;;;4.31;72.94
76603;BME280;65075;48.390;17.598;2023-11-19T08:18:26;99889.44;;;4.36;73.72
76603;BME280;65075;48.390;17.598;2023-11-19T08:20:54;99898.81;;;4.94;72.01
76603;BME280;65075;48.390;17.598;2023-11-19T08:23:24;99910.72;;;3.94;75.09
76603;BME280;65075;48.390;17.598;2023-11-19T08:25:52;99903.47;;;4.87;72.73
76603;BME280;65075;48.390;17.598;2023-11-19T08:28:23;99901.97;;;5.28;72.46
76603;BME280;65075;48.390;17.598;2023-11-19T08:30:50;99910.38;;;4.65;75.13
76603;BME280;65075;48.390;17.598;2023-11-19T08:33:17;99901.31;;;4.53;74.74
76603;BME280;65075;48.390;17.598;2023-11-19T08:35:44;99899.16;;;3.87;75.76
76603;BME280;65075;48.390;17.598;2023-11-19T08:38:11;99892.53;;;4.39;75.69
76603;BME280;65075;48.390;17.598;2023-11-19T08:40:38;99897.47;;;4.18;75.15
76603;BME280;65075;48.390;17.598;2023-11-19T08:43:05;99888.44;;;4.91;73.45
76603;BME280;65075;48.390;17.598;2023-11-19T08:45:33;99908.63;;;4.28;75.25
76603;BME280;65075;48.390;17.598;2023-11-19T08:48:00;99905.34;;;5.41;72.44
76603;BME280;65075;48.390;17.598;2023-11-19T08:50:26;99900.38;;;5.20;71.32
76603;BME280;65075;48.390;17.598;2023-11-19T08:52:52;99901.03;;;4.61;75.23
76603;BME280;65075;48.390;17.598;2023-11-19T08:55:20;99904.47;;;5.59;72.58
76603;BME280;65075;48.390;17.598;2023-11-19T08:57:46;99906.19;;;6.01;70.05
76603;BME280;65075;48.390;17.598;2023-11-19T09:00:13;99898.63;;;5.44;72.02
76603;BME280;65075;48.390;17.598;2023-11-19T09:02:44;99893.00;;;6.05;70.74
76603;BME280;65075;48.390;17.598;2023-11-19T09:05:11;99905.78;;;5.86;70.04
76603;BME280;65075;48.390;17.598;2023-11-19T09:07:40;99906.56;;;4.23;75.77
76603;BME280;65075;48.390;17.598;2023-11-19T09:10:07;99898.72;;;5.37;71.54
76603;BME280;65075;48.390;17.598;2023-11-19T09:12:36;99889.41;;;5.63;71.01
76603;BME280;65075;48.390;17.598;2023-11-19T09:15:03;99883.72;;;5.05;73.58
76603;BME280;65075;48.390;17.598;2023-11-19T09:17:30;99886.50;;;4.98;73.48
76603;BME280;65075;48.390;17.598;2023-11-19T09:19:58;99888.56;;;4.60;74.59
76603;BME280;65075;48.390;17.598;2023-11-19T09:22:25;99881.91;;;4.38;76.42
76603;BME280;65075;48.390;17.598;2023-11-19T09:24:53;99874.03;;;5.15;73.64
76603;BME280;65075;48.390;17.598;2023-11-19T09:27:20;99875.00;;;5.03;73.62
76603;BME280;65075;48.390;17.598;2023-11-19T09:29:48;99882.28;;;5.20;73.07
76603;BME280;65075;48.390;17.598;2023-11-19T09:32:16;99866.81;;;5.09;72.63
76603;BME280;65075;48.390;17.598;2023-11-19T09:34:43;99855.81;;;5.70;71.08
76603;BME280;65075;48.390;17.598;2023-11-19T09:37:10;99857.81;;;5.45;72.06
76603;BME280;65075;48.390;17.598;2023-11-19T09:39:38;99853.47;;;6.73;68.45
76603;BME280;65075;48.390;17.598;2023-11-19T09:42:05;99843.19;;;5.35;72.84
76603;BME280;65075;48.390;17.598;2023-11-19T09:44:33;99844.59;;;6.20;70.28
76603;BME280;65075;48.390;17.598;2023-11-19T09:47:01;99845.69;;;6.30;69.93
76603;BME280;65075;48.390;17.598;2023-11-19T09:49:30;99832.03;;;4.77;74.87
76603;BME280;65075;48.390;17.598;2023-11-19T09:51:58;99818.38;;;4.72;75.16
76603;BME280;65075;48.390;17.598;2023-11-19T09:54:24;99827.88;;;3.95;77.01
76603;BME280;65075;48.390;17.598;2023-11-19T09:56:52;99828.72;;;4.38;76.17
76603;BME280;65075;48.390;17.598;2023-11-19T09:59:19;99819.97;;;4.79;75.43
76603;BME280;65075;48.390;17.598;2023-11-19T10:01:47;99820.34;;;4.83;75.04
76603;BME280;65075;48.390;17.598;2023-11-19T10:04:15;99822.63;;;4.00;78.48
76603;BME280;65075;48.390;17.598;2023-11-19T10:06:43;99812.69;;;3.44;81.17
76603;BME280;65075;48.390;17.598;2023-11-19T10:09:14;99815.53;;;5.33;74.35
76603;BME280;65075;48.390;17.598;2023-11-19T10:11:41;99809.38;;;3.98;79.33
76603;BME280;65075;48.390;17.598;2023-11-19T10:14:12;99805.78;;;4.04;79.54
76603;BME280;65075;48.390;17.598;2023-11-19T10:16:40;99802.03;;;4.85;77.78
76603;BME280;65075;48.390;17.598;2023-11-19T10:19:07;99801.47;;;4.94;75.14
76603;BME280;65075;48.390;17.598;2023-11-19T10:21:35;99787.47;;;5.15;75.05
76603;BME280;65075;48.390;17.598;2023-11-19T10:24:01;99817.25;;;4.43;77.59
76603;BME280;65075;48.390;17.598;2023-11-19T10:26:28;99827.41;;;6.03;71.29
76603;BME280;65075;48.390;17.598;2023-11-19T10:28:55;99820.22;;;6.31;70.73
76603;BME280;65075;48.390;17.598;2023-11-19T10:31:22;99797.56;;;6.84;68.51
76603;BME280;65075;48.390;17.598;2023-11-19T10:33:51;99793.31;;;7.44;65.95
76603;BME280;65075;48.390;17.598;2023-11-19T10:36:18;99797.97;;;6.29;69.69
76603;BME280;65075;48.390;17.598;2023-11-19T10:38:54;99790.97;;;4.68;75.57
76603;BME280;65075;48.390;17.598;2023-11-19T10:41:31;99762.66;;;5.60;72.48
76603;BME280;65075;48.390;17.598;2023-11-19T10:43:59;99776.44;;;4.69;74.84
76603;BME280;65075;48.390;17.598;2023-11-19T10:46:42;99770.88;;;4.82;75.81
76603;BME280;65075;48.390;17.598;2023-11-19T10:49:11;99780.75;;;5.36;74.67
76603;BME280;65075;48.390;17.598;2023-11-19T10:51:45;99767.56;;;4.08;77.64
76603;BME280;65075;48.390;17.598;2023-11-19T10:54:19;99762.09;;;5.16;75.28
76603;BME280;65075;48.390;17.598;2023-11-19T10:56:55;99748.19;;;4.83;74.99
76603;BME280;65075;48.390;17.598;2023-11-19T10:59:37;99745.94;;;4.80;75.99
76603;BME280;65075;48.390;17.598;2023-11-19T11:02:13;99747.09;;;5.32;73.53
76603;BME280;65075;48.390;17.598;2023-11-19T11:04:47;99743.56;;;4.18;78.01
76603;BME280;65075;48.390;17.598;2023-11-19T11:07:14;99746.94;;;3.88;78.75
76603;BME280;65075;48.390;17.598;2023-11-19T11:09:47;99736.06;;;4.20;79.59
76603;BME280;65075;48.390;17.598;2023-11-19T11:12:17;99733.94;;;4.76;76.96
76603;BME280;65075;48.390;17.598;2023-11-19T11:14:49;99695.22;;;4.64;75.80
76603;BME280;65075;48.390;17.598;2023-11-19T11:17:17;99726.03;;;4.45;76.38
76603;BME280;65075;48.390;17.598;2023-11-19T11:19:45;99710.44;;;5.48;74.10
76603;BME280;65075;48.390;17.598;2023-11-19T11:22:16;99732.03;;;5.25;74.52
76603;BME280;65075;48.390;17.598;2023-11-19T11:39:32;99704.09;;;4.35;79.58
76603;BME280;65075;48.390;17.598;2023-11-19T11:45:04;99719.84;;;5.80;74.20
76603;BME280;65075;48.390;17.598;2023-11-19T11:50:25;99715.31;;;5.92;72.59
76603;BME280;65075;48.390;17.598;2023-11-19T11:58:25;99674.09;;;5.02;75.77
76603;BME280;65075;48.390;17.598;2023-11-19T12:00:52;99664.06;;;5.33;75.27
76603;BME280;65075;48.390;17.598;2023-11-19T12:03:23;99654.91;;;5.92;73.43
76603;BME280;65075;48.390;17.598;2023-11-19T12:05:50;99670.88;;;5.47;74.50
76603;BME280;65075;48.390;17.598;2023-11-19T12:08:25;99650.81;;;5.01;77.25
76603;BME280;65075;48.390;17.598;2023-11-19T12:10:55;99643.41;;;5.08;76.17
76603;BME280;65075;48.390;17.598;2023-11-19T12:13:42;99638.25;;;6.23;75.32
76603;BME280;65075;48.390;17.598;2023-11-19T12:16:11;99666.88;;;5.38;74.93
76603;BME280;65075;48.390;17.598;2023-11-19T12:18:39;99670.88;;;4.82;78.42
76603;BME280;65075;48.390;17.598;2023-11-19T12:21:07;99652.63;;;5.19;76.82
76603;BME280;65075;48.390;17.598;2023-11-19T12:23:45;99658.31;;;5.75;75.10
76603;BME280;65075;48.390;17.598;2023-11-19T12:26:32;99664.19;;;5.72;73.56
76603;BME280;65075;48.390;17.598;2023-11-19T12:29:00;99654.28;;;6.24;73.30
76603;BME280;65075;48.390;17.598;2023-11-19T12:31:27;99661.19;;;7.17;70.71
76603;BME280;65075;48.390;17.598;2023-11-19T12:33:54;99672.41;;;6.64;70.91
76603;BME280;65075;48.390;17.598;2023-11-19T12:36:21;99659.16;;;6.79;69.95
76603;BME280;65075;48.390;17.598;2023-11-19T12:38:48;99654.72;;;7.34;67.41
76603;BME280;65075;48.390;17.598;2023-11-19T12:41:15;99648.16;;;5.83;72.96
76603;BME280;65075;48.390;17.598;2023-11-19T12:43:46;99645.06;;;4.68;76.30
76603;BME280;65075;48.390;17.598;2023-11-19T12:46:24;99659.97;;;5.65;75.18
76603;BME280;65075;48.390;17.598;2023-11-19T12:48:51;99652.88;;;5.29;77.85
76603;BME280;65075;48.390;17.598;2023-11-19T12:51:21;99640.31;;;5.81;74.39
76603;BME280;65075;48.390;17.598;2023-11-19T12:53:53;99635.72;;;5.82;73.36
76603;BME280;65075;48.390;17.598;2023-11-19T12:56:25;99637.00;;;5.33;77.92
76603;BME280;65075;48.390;17.598;2023-11-19T12:58:52;99626.94;;;6.82;72.55
76603;BME280;65075;48.390;17.598;2023-11-19T13:01:20;99638.53;;;7.56;68.64
76603;BME280;65075;48.390;17.598;2023-11-19T13:03:48;99644.69;;;6.73;69.04
76603;BME280;65075;48.390;17.598;2023-11-19T13:06:18;99638.41;;;8.06;66.72
76603;BME280;65075;48.390;17.598;2023-11-19T13:08:49;99644.25;;;6.93;69.72
76603;BME280;65075;48.390;17.598;2023-11-19T13:11:35;99652.72;;;8.18;66.73
76603;BME280;65075;48.390;17.598;2023-11-19T13:14:05;99638.34;;;8.23;65.49
76603;BME280;65075;48.390;17.598;2023-11-19T13:16:36;99615.97;;;7.56;68.94
76603;BME280;65075;48.390;17.598;2023-11-19T13:19:03;99616.06;;;6.66;70.47
76603;BME280;65075;48.390;17.598;2023-11-19T13:21:31;99625.84;;;7.28;68.25
76603;BME280;65075;48.390;17.598;2023-11-19T13:23:58;99616.88;;;8.21;66.18
76603;BME280;65075;48.390;17.598;2023-11-19T13:26:25;99618.75;;;7.61;69.02
76603;BME280;65075;48.390;17.598;2023-11-19T13:28:51;99611.00;;;7.69;67.44